sensor_id;sensor_type;location;lat;lon;timestamp;pressure;altitude;pressure_sealevel;temperature;humidity
11712;BME280;5912;51.034;6.984;2023-04-21T00:02:03;56478.53;;;-142.13;74.56
11712;BME280;5912;51.034;6.984;2023-04-21T00:04:28;56486.53;;;-142.13;74.23
11712;BME280;5912;51.034;6.984;2023-04-21T00:06:54;56496.56;;;-142.13;74.74
11712;BME280;5912;51.034;6.984;2023-04-21T00:09:20;56474.53;;;-142.13;74.42
11712;BME280;5912;51.034;6.984;2023-04-21T00:11:46;56506.56;;;-142.13;74.95
11712;BME280;5912;51.034;6.984;2023-04-21T00:14:11;56534.63;;;-142.13;74.62
11712;BME280;5912;51.034;6.984;2023-04-21T00:16:36;56482.53;;;-142.13;74.86
11712;BME280;5912;51.034;6.984;2023-04-21T00:19:02;56472.50;;;-142.13;74.71
11712;BME280;5912;51.034;6.984;2023-04-21T00:21:31;56494.56;;;-142.13;75.10
11712;BME280;5912;51.034;6.984;2023-04-21T00:23:57;56490.53;;;-142.13;75.06
11712;BME280;5912;51.034;6.984;2023-04-21T00:26:22;56480.53;;;-142.13;74.64
11712;BME280;5912;51.034;6.984;2023-04-21T00:28:47;56480.53;;;-142.13;74.85
11712;BME280;5912;51.034;6.984;2023-04-21T00:31:12;56488.53;;;-142.13;74.86
11712;BME280;5912;51.034;6.984;2023-04-21T00:33:38;56470.50;;;-142.13;74.46
11712;BME280;5912;51.034;6.984;2023-04-21T00:36:03;56494.56;;;-142.13;74.63
11712;BME280;5912;51.034;6.984;2023-04-21T00:38:29;56514.59;;;-142.13;75.22
11712;BME280;5912;51.034;6.984;2023-04-21T00:40:54;56532.63;;;-142.13;74.65
11712;BME280;5912;51.034;6.984;2023-04-21T00:43:20;56492.53;;;-142.13;74.90
11712;BME280;5912;51.034;6.984;2023-04-21T00:45:45;56504.56;;;-142.13;75.08
11712;BME280;5912;51.034;6.984;2023-04-21T00:48:13;56492.53;;;-142.13;75.11
11712;BME280;5912;51.034;6.984;2023-04-21T00:50:38;56484.53;;;-142.13;75.12
11712;BME280;5912;51.034;6.984;2023-04-21T00:53:04;56496.56;;;-142.13;75.41
11712;BME280;5912;51.034;6.984;2023-04-21T00:55:29;56474.53;;;-142.13;75.06
11712;BME280;5912;51.034;6.984;2023-04-21T00:57:55;56488.53;;;-142.13;75.04
11712;BME280;5912;51.034;6.984;2023-04-21T01:00:21;56492.53;;;-142.13;75.34
11712;BME280;5912;51.034;6.984;2023-04-21T01:02:47;56478.53;;;-142.13;75.17
11712;BME280;5912;51.034;6.984;2023-04-21T01:05:12;56484.53;;;-142.13;75.33
11712;BME280;5912;51.034;6.984;2023-04-21T01:07:38;56536.63;;;-142.13;75.55
11712;BME280;5912;51.034;6.984;2023-04-21T01:10:03;56492.53;;;-142.13;75.17
11712;BME280;5912;51.034;6.984;2023-04-21T01:12:29;56502.56;;;-142.13;75.13
11712;BME280;5912;51.034;6.984;2023-04-21T01:14:54;56484.53;;;-142.13;75.47
11712;BME280;5912;51.034;6.984;2023-04-21T01:17:20;56488.53;;;-142.13;75.50
11712;BME280;5912;51.034;6.984;2023-04-21T01:19:46;56506.56;;;-142.13;75.31
11712;BME280;5912;51.034;6.984;2023-04-21T01:22:12;56484.53;;;-142.13;75.07
11712;BME280;5912;51.034;6.984;2023-04-21T01:25:13;56496.56;;;-142.13;74.98
11712;BME280;5912;51.034;6.984;2023-04-21T01:27:39;56520.59;;;-142.13;74.97
11712;BME280;5912;51.034;6.984;2023-04-21T01:30:05;56478.53;;;-142.13;74.82
11712;BME280;5912;51.034;6.984;2023-04-21T01:32:31;56492.53;;;-142.13;74.81
11712;BME280;5912;51.034;6.984;2023-04-21T01:34:57;56480.53;;;-142.13;75.18
11712;BME280;5912;51.034;6.984;2023-04-21T01:37:26;56488.53;;;-142.13;74.96
11712;BME280;5912;51.034;6.984;2023-04-21T01:39:56;56470.50;;;-142.13;75.11
11712;BME280;5912;51.034;6.984;2023-04-21T01:42:24;56494.56;;;-142.13;75.42
11712;BME280;5912;51.034;6.984;2023-04-21T01:44:50;56480.53;;;-142.13;75.22
11712;BME280;5912;51.034;6.984;2023-04-21T01:47:18;56498.56;;;-142.13;75.25
11712;BME280;5912;51.034;6.984;2023-04-21T01:49:43;56474.53;;;-142.13;75.41
11712;BME280;5912;51.034;6.984;2023-04-21T01:52:09;56482.53;;;-142.13;75.25
11712;BME280;5912;51.034;6.984;2023-04-21T01:54:34;56470.50;;;-142.13;75.56
11712;BME280;5912;51.034;6.984;2023-04-21T01:57:00;56482.53;;;-142.13;75.57
11712;BME280;5912;51.034;6.984;2023-04-21T01:59:26;56454.47;;;-142.13;75.22
11712;BME280;5912;51.034;6.984;2023-04-21T02:01:52;56464.50;;;-142.13;75.32
11712;BME280;5912;51.034;6.984;2023-04-21T02:04:17;56482.53;;;-142.13;75.02
11712;BME280;5912;51.034;6.984;2023-04-21T02:06:42;56494.56;;;-142.13;75.23
11712;BME280;5912;51.034;6.984;2023-04-21T02:09:07;56490.53;;;-142.13;74.73
11712;BME280;5912;51.034;6.984;2023-04-21T02:11:33;56514.59;;;-142.13;75.01
11712;BME280;5912;51.034;6.984;2023-04-21T02:13:58;56460.50;;;-142.13;75.01
11712;BME280;5912;51.034;6.984;2023-04-21T02:16:24;56506.56;;;-142.13;74.82
11712;BME280;5912;51.034;6.984;2023-04-21T02:18:55;56490.53;;;-142.13;74.97
11712;BME280;5912;51.034;6.984;2023-04-21T02:21:24;56492.53;;;-142.13;75.22
11712;BME280;5912;51.034;6.984;2023-04-21T02:23:56;56472.50;;;-142.13;74.80
11712;BME280;5912;51.034;6.984;2023-04-21T02:26:22;56512.59;;;-142.13;74.79
11712;BME280;5912;51.034;6.984;2023-04-21T02:28:48;56478.53;;;-142.13;74.71
11712;BME280;5912;51.034;6.984;2023-04-21T02:31:14;56482.53;;;-142.13;75.00
11712;BME280;5912;51.034;6.984;2023-04-21T02:33:40;56498.56;;;-142.13;75.02
11712;BME280;5912;51.034;6.984;2023-04-21T02:36:05;56496.56;;;-142.13;74.74
11712;BME280;5912;51.034;6.984;2023-04-21T02:38:31;56472.50;;;-142.13;74.80
11712;BME280;5912;51.034;6.984;2023-04-21T02:40:56;56468.50;;;-142.13;75.07
11712;BME280;5912;51.034;6.984;2023-04-21T02:43:22;56512.59;;;-142.13;74.98
11712;BME280;5912;51.034;6.984;2023-04-21T02:45:47;56472.50;;;-142.13;74.99
11712;BME280;5912;51.034;6.984;2023-04-21T02:48:13;56470.50;;;-142.13;74.98
11712;BME280;5912;51.034;6.984;2023-04-21T02:50:38;56500.56;;;-142.13;75.06
11712;BME280;5912;51.034;6.984;2023-04-21T02:53:04;56506.56;;;-142.13;75.47
11712;BME280;5912;51.034;6.984;2023-04-21T02:55:29;56492.53;;;-142.13;75.33
11712;BME280;5912;51.034;6.984;2023-04-21T02:57:55;56508.56;;;-142.13;75.27
11712;BME280;5912;51.034;6.984;2023-04-21T03:00:20;56460.50;;;-142.13;75.12
11712;BME280;5912;51.034;6.984;2023-04-21T03:02:46;56508.56;;;-142.13;75.44
11712;BME280;5912;51.034;6.984;2023-04-21T03:05:11;56526.59;;;-142.13;75.12
11712;BME280;5912;51.034;6.984;2023-04-21T03:07:37;56488.53;;;-142.13;75.61
11712;BME280;5912;51.034;6.984;2023-04-21T03:10:02;56508.56;;;-142.13;75.39
11712;BME280;5912;51.034;6.984;2023-04-21T03:12:28;56500.56;;;-142.13;75.55
11712;BME280;5912;51.034;6.984;2023-04-21T03:14:53;56504.56;;;-142.13;75.61
11712;BME280;5912;51.034;6.984;2023-04-21T03:17:18;56494.56;;;-142.13;75.38
11712;BME280;5912;51.034;6.984;2023-04-21T03:19:44;56486.53;;;-142.13;75.55
11712;BME280;5912;51.034;6.984;2023-04-21T03:22:09;56486.53;;;-142.13;75.72
11712;BME280;5912;51.034;6.984;2023-04-21T03:24:34;56488.53;;;-142.13;75.68
11712;BME280;5912;51.034;6.984;2023-04-21T03:27:00;56504.56;;;-142.13;75.87
11712;BME280;5912;51.034;6.984;2023-04-21T03:29:26;56506.56;;;-142.13;75.95
11712;BME280;5912;51.034;6.984;2023-04-21T03:31:51;56508.56;;;-142.13;76.07
11712;BME280;5912;51.034;6.984;2023-04-21T03:34:17;56528.59;;;-142.13;75.99
11712;BME280;5912;51.034;6.984;2023-04-21T03:36:42;56492.53;;;-142.13;76.28
11712;BME280;5912;51.034;6.984;2023-04-21T03:39:07;56508.56;;;-142.13;76.08
11712;BME280;5912;51.034;6.984;2023-04-21T03:41:33;56520.59;;;-142.13;76.37
11712;BME280;5912;51.034;6.984;2023-04-21T03:43:58;56500.56;;;-142.13;76.51
11712;BME280;5912;51.034;6.984;2023-04-21T03:46:23;56510.56;;;-142.13;76.70
11712;BME280;5912;51.034;6.984;2023-04-21T03:48:49;56502.56;;;-142.13;76.79
11712;BME280;5912;51.034;6.984;2023-04-21T03:51:15;56540.63;;;-142.13;76.79
11712;BME280;5912;51.034;6.984;2023-04-21T03:53:40;56510.56;;;-142.13;76.94
11712;BME280;5912;51.034;6.984;2023-04-21T03:56:06;56522.59;;;-142.13;76.81
11712;BME280;5912;51.034;6.984;2023-04-21T03:58:31;56514.59;;;-142.13;76.82
11712;BME280;5912;51.034;6.984;2023-04-21T04:00:56;56542.63;;;-142.13;76.80
11712;BME280;5912;51.034;6.984;2023-04-21T04:03:22;56528.59;;;-142.13;76.78
11712;BME280;5912;51.034;6.984;2023-04-21T04:05:47;56490.53;;;-142.13;77.00
11712;BME280;5912;51.034;6.984;2023-04-21T04:08:12;56490.53;;;-142.13;76.85
11712;BME280;5912;51.034;6.984;2023-04-21T04:10:38;56518.59;;;-142.13;76.57
11712;BME280;5912;51.034;6.984;2023-04-21T04:13:03;56524.59;;;-142.13;77.41
11712;BME280;5912;51.034;6.984;2023-04-21T04:15:29;56538.63;;;-142.13;77.16
11712;BME280;5912;51.034;6.984;2023-04-21T04:17:54;56558.66;;;-142.13;77.16
11712;BME280;5912;51.034;6.984;2023-04-21T04:20:20;56520.59;;;-142.13;77.31
11712;BME280;5912;51.034;6.984;2023-04-21T04:22:45;56512.59;;;-142.13;77.30
11712;BME280;5912;51.034;6.984;2023-04-21T04:25:10;56538.63;;;-142.13;77.27
11712;BME280;5912;51.034;6.984;2023-04-21T04:27:39;56522.59;;;-142.13;76.99
11712;BME280;5912;51.034;6.984;2023-04-21T04:30:04;56508.56;;;-142.13;77.27
11712;BME280;5912;51.034;6.984;2023-04-21T04:32:31;56528.59;;;-142.13;77.05
11712;BME280;5912;51.034;6.984;2023-04-21T04:34:57;56512.59;;;-142.13;77.13
11712;BME280;5912;51.034;6.984;2023-04-21T04:37:23;56528.59;;;-142.13;77.31
11712;BME280;5912;51.034;6.984;2023-04-21T04:39:52;56530.59;;;-142.13;77.48
11712;BME280;5912;51.034;6.984;2023-04-21T04:42:17;56538.63;;;-142.13;77.28
11712;BME280;5912;51.034;6.984;2023-04-21T04:44:44;56518.59;;;-142.13;77.56
11712;BME280;5912;51.034;6.984;2023-04-21T04:47:10;56518.59;;;-142.13;77.51
11712;BME280;5912;51.034;6.984;2023-04-21T04:49:35;56538.63;;;-142.13;77.37
11712;BME280;5912;51.034;6.984;2023-04-21T04:52:00;56520.59;;;-142.13;77.04
11712;BME280;5912;51.034;6.984;2023-04-21T04:54:26;56506.56;;;-142.13;77.07
11712;BME280;5912;51.034;6.984;2023-04-21T04:56:53;56494.56;;;-142.13;76.99
11712;BME280;5912;51.034;6.984;2023-04-21T04:59:18;56540.63;;;-142.13;77.13
11712;BME280;5912;51.034;6.984;2023-04-21T05:01:43;56490.53;;;-142.13;77.03
11712;BME280;5912;51.034;6.984;2023-04-21T05:04:09;56532.63;;;-142.13;77.27
11712;BME280;5912;51.034;6.984;2023-04-21T05:06:35;56492.53;;;-142.13;77.36
11712;BME280;5912;51.034;6.984;2023-04-21T05:09:00;56504.56;;;-142.13;77.35
11712;BME280;5912;51.034;6.984;2023-04-21T05:11:26;56528.59;;;-142.13;77.30
11712;BME280;5912;51.034;6.984;2023-04-21T05:13:51;56522.59;;;-142.13;76.85
11712;BME280;5912;51.034;6.984;2023-04-21T05:16:16;56492.53;;;-142.13;76.89
11712;BME280;5912;51.034;6.984;2023-04-21T05:18:41;56494.56;;;-142.13;76.53
11712;BME280;5912;51.034;6.984;2023-04-21T05:21:07;56488.53;;;-142.13;76.34
11712;BME280;5912;51.034;6.984;2023-04-21T05:23:32;56480.53;;;-142.13;76.51
11712;BME280;5912;51.034;6.984;2023-04-21T05:25:58;56492.53;;;-142.13;75.88
11712;BME280;5912;51.034;6.984;2023-04-21T05:28:41;56492.53;;;-142.13;76.13
11712;BME280;5912;51.034;6.984;2023-04-21T05:31:06;56472.50;;;-142.13;75.86
11712;BME280;5912;51.034;6.984;2023-04-21T05:33:32;56498.56;;;-142.13;75.78
11712;BME280;5912;51.034;6.984;2023-04-21T05:35:57;56496.56;;;-142.13;75.63
11712;BME280;5912;51.034;6.984;2023-04-21T05:38:22;56516.59;;;-142.13;75.60
11712;BME280;5912;51.034;6.984;2023-04-21T05:40:54;56498.56;;;-142.13;75.50
11712;BME280;5912;51.034;6.984;2023-04-21T05:43:20;56496.56;;;-142.13;75.84
11712;BME280;5912;51.034;6.984;2023-04-21T05:45:46;56522.59;;;-142.13;75.34
11712;BME280;5912;51.034;6.984;2023-04-21T05:48:11;56520.59;;;-142.13;75.65
11712;BME280;5912;51.034;6.984;2023-04-21T05:50:37;56506.56;;;-142.13;75.62
11712;BME280;5912;51.034;6.984;2023-04-21T05:53:02;56498.56;;;-142.13;75.69
11712;BME280;5912;51.034;6.984;2023-04-21T05:55:27;56504.56;;;-142.13;76.31
11712;BME280;5912;51.034;6.984;2023-04-21T05:57:53;56496.56;;;-142.13;75.53
11712;BME280;5912;51.034;6.984;2023-04-21T06:00:30;56524.59;;;-142.13;75.34
11712;BME280;5912;51.034;6.984;2023-04-21T06:02:56;56488.53;;;-142.13;75.09
11712;BME280;5912;51.034;6.984;2023-04-21T06:05:21;56496.56;;;-142.13;74.97
11712;BME280;5912;51.034;6.984;2023-04-21T06:07:46;56516.59;;;-142.13;75.25
11712;BME280;5912;51.034;6.984;2023-04-21T06:10:12;56502.56;;;-142.13;74.76
11712;BME280;5912;51.034;6.984;2023-04-21T06:12:38;56466.50;;;-142.13;74.67
11712;BME280;5912;51.034;6.984;2023-04-21T06:15:04;56470.50;;;-142.13;74.56
11712;BME280;5912;51.034;6.984;2023-04-21T06:17:29;56472.50;;;-142.13;73.92
11712;BME280;5912;51.034;6.984;2023-04-21T06:19:55;56508.56;;;-142.13;73.72
11712;BME280;5912;51.034;6.984;2023-04-21T06:22:21;56510.56;;;-142.13;73.00
11712;BME280;5912;51.034;6.984;2023-04-21T06:24:47;56502.56;;;-142.13;72.99
11712;BME280;5912;51.034;6.984;2023-04-21T06:27:13;56456.50;;;-142.13;72.89
11712;BME280;5912;51.034;6.984;2023-04-21T06:29:39;56464.50;;;-142.13;71.90
11712;BME280;5912;51.034;6.984;2023-04-21T06:32:05;56498.56;;;-142.13;72.03
11712;BME280;5912;51.034;6.984;2023-04-21T06:34:30;56444.47;;;-142.13;71.45
11712;BME280;5912;51.034;6.984;2023-04-21T06:36:55;56458.50;;;-142.13;70.66
11712;BME280;5912;51.034;6.984;2023-04-21T06:39:20;56438.47;;;-142.13;70.27
11712;BME280;5912;51.034;6.984;2023-04-21T06:41:46;56446.47;;;-142.13;70.08
11712;BME280;5912;51.034;6.984;2023-04-21T06:44:11;56444.47;;;-142.13;69.78
11712;BME280;5912;51.034;6.984;2023-04-21T06:46:40;56454.47;;;-142.13;69.31
11712;BME280;5912;51.034;6.984;2023-04-21T06:49:08;56420.44;;;-142.13;68.34
11712;BME280;5912;51.034;6.984;2023-04-21T06:51:34;56436.47;;;-142.13;68.17
11712;BME280;5912;51.034;6.984;2023-04-21T06:53:59;56406.41;;;-142.13;68.13
11712;BME280;5912;51.034;6.984;2023-04-21T06:56:26;56420.44;;;-142.13;67.53
11712;BME280;5912;51.034;6.984;2023-04-21T06:58:51;56410.41;;;-142.13;67.06
11712;BME280;5912;51.034;6.984;2023-04-21T07:01:17;56428.44;;;-142.13;66.96
11712;BME280;5912;51.034;6.984;2023-04-21T07:03:43;56396.41;;;-142.13;66.20
11712;BME280;5912;51.034;6.984;2023-04-21T07:06:08;56394.38;;;-142.13;66.43
11712;BME280;5912;51.034;6.984;2023-04-21T07:08:33;56392.38;;;-142.13;66.26
11712;BME280;5912;51.034;6.984;2023-04-21T07:10:59;56398.41;;;-142.13;65.51
11712;BME280;5912;51.034;6.984;2023-04-21T07:13:24;56376.34;;;-142.13;65.01
11712;BME280;5912;51.034;6.984;2023-04-21T07:15:49;56404.41;;;-142.13;64.19
11712;BME280;5912;51.034;6.984;2023-04-21T07:18:15;56376.34;;;-142.13;64.21
11712;BME280;5912;51.034;6.984;2023-04-21T07:20:40;56342.31;;;-142.13;62.90
11712;BME280;5912;51.034;6.984;2023-04-21T07:23:06;56402.41;;;-142.13;61.86
11712;BME280;5912;51.034;6.984;2023-04-21T07:25:31;56378.38;;;-142.13;61.20
11712;BME280;5912;51.034;6.984;2023-04-21T07:27:56;56372.34;;;-142.13;59.40
11712;BME280;5912;51.034;6.984;2023-04-21T07:30:22;56370.34;;;-142.13;59.63
11712;BME280;5912;51.034;6.984;2023-04-21T07:32:47;56378.38;;;-142.13;60.16
11712;BME280;5912;51.034;6.984;2023-04-21T07:35:12;56356.31;;;-142.13;59.90
11712;BME280;5912;51.034;6.984;2023-04-21T07:37:38;56384.38;;;-142.13;60.24
11712;BME280;5912;51.034;6.984;2023-04-21T07:40:06;56384.38;;;-142.13;60.83
11712;BME280;5912;51.034;6.984;2023-04-21T07:42:31;56356.31;;;-142.13;60.63
11712;BME280;5912;51.034;6.984;2023-04-21T07:44:57;56430.44;;;-142.13;61.16
11712;BME280;5912;51.034;6.984;2023-04-21T07:47:22;56372.34;;;-142.13;61.38
11712;BME280;5912;51.034;6.984;2023-04-21T07:49:47;56358.34;;;-142.13;61.31
11712;BME280;5912;51.034;6.984;2023-04-21T07:52:13;56364.34;;;-142.13;61.14
11712;BME280;5912;51.034;6.984;2023-04-21T07:54:38;56368.34;;;-142.13;59.65
11712;BME280;5912;51.034;6.984;2023-04-21T07:57:03;56384.38;;;-142.13;59.75
11712;BME280;5912;51.034;6.984;2023-04-21T07:59:29;56336.28;;;-142.13;59.74
11712;BME280;5912;51.034;6.984;2023-04-21T08:01:54;56316.25;;;-142.13;59.25
11712;BME280;5912;51.034;6.984;2023-04-21T08:04:20;56328.28;;;-142.13;55.98
11712;BME280;5912;51.034;6.984;2023-04-21T08:06:45;56306.25;;;-142.13;53.97
11712;BME280;5912;51.034;6.984;2023-04-21T08:09:11;56276.19;;;-142.13;50.90
11712;BME280;5912;51.034;6.984;2023-04-21T08:11:36;56284.22;;;-142.13;49.89
11712;BME280;5912;51.034;6.984;2023-04-21T08:14:11;56296.22;;;-142.13;50.27
11712;BME280;5912;51.034;6.984;2023-04-21T08:16:39;56322.28;;;-142.13;52.04
11712;BME280;5912;51.034;6.984;2023-04-21T08:19:06;56296.22;;;-142.13;53.24
11712;BME280;5912;51.034;6.984;2023-04-21T08:21:32;56286.22;;;-142.13;53.08
11712;BME280;5912;51.034;6.984;2023-04-21T08:23:58;56302.25;;;-142.13;53.22
11712;BME280;5912;51.034;6.984;2023-04-21T08:26:24;56296.22;;;-142.13;51.13
11712;BME280;5912;51.034;6.984;2023-04-21T08:28:50;56290.22;;;-142.13;51.71
11712;BME280;5912;51.034;6.984;2023-04-21T08:31:17;56296.22;;;-142.13;52.62
11712;BME280;5912;51.034;6.984;2023-04-21T08:33:43;56310.25;;;-142.13;53.17
11712;BME280;5912;51.034;6.984;2023-04-21T08:36:08;56296.22;;;-142.13;53.85
11712;BME280;5912;51.034;6.984;2023-04-21T08:38:36;56328.28;;;-142.13;53.95
11712;BME280;5912;51.034;6.984;2023-04-21T08:41:02;56316.25;;;-142.13;53.92
11712;BME280;5912;51.034;6.984;2023-04-21T08:43:28;56290.22;;;-142.13;53.35
11712;BME280;5912;51.034;6.984;2023-04-21T08:45:54;56276.19;;;-142.13;52.85
11712;BME280;5912;51.034;6.984;2023-04-21T08:48:20;56280.22;;;-142.13;52.26
11712;BME280;5912;51.034;6.984;2023-04-21T08:50:49;56258.16;;;-142.13;51.47
11712;BME280;5912;51.034;6.984;2023-04-21T08:53:15;56240.16;;;-142.13;50.42
11712;BME280;5912;51.034;6.984;2023-04-21T08:55:41;56228.13;;;-142.13;48.62
11712;BME280;5912;51.034;6.984;2023-04-21T08:58:06;56216.09;;;-142.13;47.69
11712;BME280;5912;51.034;6.984;2023-04-21T09:00:36;56244.16;;;-142.13;46.89
11712;BME280;5912;51.034;6.984;2023-04-21T09:03:01;56216.09;;;-142.13;46.41
11712;BME280;5912;51.034;6.984;2023-04-21T09:05:31;56184.06;;;-142.13;45.47
11712;BME280;5912;51.034;6.984;2023-04-21T09:08:11;56174.03;;;-142.13;42.12
11712;BME280;5912;51.034;6.984;2023-04-21T09:10:47;56176.03;;;-142.13;42.92
11712;BME280;5912;51.034;6.984;2023-04-21T09:13:13;56212.09;;;-142.13;43.08
11712;BME280;5912;51.034;6.984;2023-04-21T09:15:43;56216.09;;;-142.13;43.79
11712;BME280;5912;51.034;6.984;2023-04-21T09:18:19;56244.16;;;-142.13;44.99
11712;BME280;5912;51.034;6.984;2023-04-21T09:20:48;56204.09;;;-142.13;44.90
11712;BME280;5912;51.034;6.984;2023-04-21T09:23:13;56164.03;;;-142.13;44.45
11712;BME280;5912;51.034;6.984;2023-04-21T09:25:40;56127.97;;;-142.13;42.23
11712;BME280;5912;51.034;6.984;2023-04-21T09:28:07;56115.94;;;-142.13;40.17
11712;BME280;5912;51.034;6.984;2023-04-21T09:30:37;56111.94;;;-142.13;39.63
11712;BME280;5912;51.034;6.984;2023-04-21T09:33:03;56127.97;;;-142.13;39.57
11712;BME280;5912;51.034;6.984;2023-04-21T09:35:34;56133.97;;;-142.13;40.47
11712;BME280;5912;51.034;6.984;2023-04-21T09:38:01;56156.00;;;-142.13;41.58
11712;BME280;5912;51.034;6.984;2023-04-21T09:40:28;56158.00;;;-142.13;42.07
11712;BME280;5912;51.034;6.984;2023-04-21T09:42:54;56133.97;;;-142.13;41.08
11712;BME280;5912;51.034;6.984;2023-04-21T09:45:22;56123.97;;;-142.13;41.01
11712;BME280;5912;51.034;6.984;2023-04-21T09:47:51;56127.97;;;-142.13;41.20
11712;BME280;5912;51.034;6.984;2023-04-21T09:50:20;56135.97;;;-142.13;41.35
11712;BME280;5912;51.034;6.984;2023-04-21T09:52:49;56135.97;;;-142.13;41.80
11712;BME280;5912;51.034;6.984;2023-04-21T09:55:17;56170.03;;;-142.13;41.90
11712;BME280;5912;51.034;6.984;2023-04-21T09:58:17;56156.00;;;-142.13;41.05
11712;BME280;5912;51.034;6.984;2023-04-21T10:00:44;56160.03;;;-142.13;41.81
11712;BME280;5912;51.034;6.984;2023-04-21T10:03:11;56152.00;;;-142.13;41.89
11712;BME280;5912;51.034;6.984;2023-04-21T10:05:37;56152.00;;;-142.13;41.43
11712;BME280;5912;51.034;6.984;2023-04-21T10:08:03;56123.97;;;-142.13;40.35
11712;BME280;5912;51.034;6.984;2023-04-21T10:10:31;56087.91;;;-142.13;39.16
11712;BME280;5912;51.034;6.984;2023-04-21T10:12:58;56055.84;;;-142.13;37.69
11712;BME280;5912;51.034;6.984;2023-04-21T10:16:00;56057.88;;;-142.13;37.13
11712;BME280;5912;51.034;6.984;2023-04-21T10:18:27;56047.84;;;-142.13;36.80
11712;BME280;5912;51.034;6.984;2023-04-21T10:20:57;56075.88;;;-142.13;36.74
11712;BME280;5912;51.034;6.984;2023-04-21T10:26:32;56073.88;;;-142.13;37.41
11712;BME280;5912;51.034;6.984;2023-04-21T10:28:59;56023.81;;;-142.13;36.89
11712;BME280;5912;51.034;6.984;2023-04-21T10:31:51;56037.84;;;-142.13;35.92
11712;BME280;5912;51.034;6.984;2023-04-21T10:34:33;56013.78;;;-142.13;35.49
11712;BME280;5912;51.034;6.984;2023-04-21T10:39:35;55967.72;;;-142.13;33.87
11712;BME280;5912;51.034;6.984;2023-04-21T10:47:25;55945.69;;;-142.13;31.51
11712;BME280;5912;51.034;6.984;2023-04-21T10:49:51;55929.66;;;-142.13;31.91
11712;BME280;5912;51.034;6.984;2023-04-21T10:52:17;55929.66;;;-142.13;31.41
11712;BME280;5912;51.034;6.984;2023-04-21T10:57:18;55957.72;;;-142.13;32.33
11712;BME280;5912;51.034;6.984;2023-04-21T10:59:45;56003.78;;;-142.13;32.46
11712;BME280;5912;51.034;6.984;2023-04-21T11:02:12;56003.78;;;-142.13;33.33
11712;BME280;5912;51.034;6.984;2023-04-21T11:04:39;56047.84;;;-142.13;34.36
11712;BME280;5912;51.034;6.984;2023-04-21T11:07:12;56019.81;;;-142.13;33.52
11712;BME280;5912;51.034;6.984;2023-04-21T11:09:40;56021.81;;;-142.13;33.72
11712;BME280;5912;51.034;6.984;2023-04-21T11:12:13;56043.84;;;-142.13;33.33
11712;BME280;5912;51.034;6.984;2023-04-21T11:14:40;56051.84;;;-142.13;33.40
11712;BME280;5912;51.034;6.984;2023-04-21T11:17:13;56063.88;;;-142.13;33.41
11712;BME280;5912;51.034;6.984;2023-04-21T11:19:39;56069.88;;;-142.13;34.71
11712;BME280;5912;51.034;6.984;2023-04-21T11:22:04;56095.91;;;-142.13;34.89
11712;BME280;5912;51.034;6.984;2023-04-21T11:24:31;56091.91;;;-142.13;34.82
11712;BME280;5912;51.034;6.984;2023-04-21T11:26:56;56077.91;;;-142.13;35.67
11712;BME280;5912;51.034;6.984;2023-04-21T11:29:23;56111.94;;;-142.13;34.55
11712;BME280;5912;51.034;6.984;2023-04-21T11:31:49;56097.94;;;-142.13;35.21
11712;BME280;5912;51.034;6.984;2023-04-21T11:34:15;56107.94;;;-142.13;35.67
11712;BME280;5912;51.034;6.984;2023-04-21T11:36:44;56103.94;;;-142.13;35.62
11712;BME280;5912;51.034;6.984;2023-04-21T11:39:12;56107.94;;;-142.13;35.13
11712;BME280;5912;51.034;6.984;2023-04-21T11:41:41;56119.97;;;-142.13;33.92
11712;BME280;5912;51.034;6.984;2023-04-21T11:44:07;56101.94;;;-142.13;34.77
11712;BME280;5912;51.034;6.984;2023-04-21T11:46:33;56049.84;;;-142.13;35.17
11712;BME280;5912;51.034;6.984;2023-04-21T11:49:02;56015.81;;;-142.13;33.65
11712;BME280;5912;51.034;6.984;2023-04-21T11:51:35;56019.81;;;-142.13;33.28
11712;BME280;5912;51.034;6.984;2023-04-21T11:54:01;55989.75;;;-142.13;31.98
11712;BME280;5912;51.034;6.984;2023-04-21T11:56:28;55999.78;;;-142.13;32.17
11712;BME280;5912;51.034;6.984;2023-04-21T11:58:54;56001.78;;;-142.13;31.83
11712;BME280;5912;51.034;6.984;2023-04-21T12:01:20;55981.75;;;-142.13;31.49
11712;BME280;5912;51.034;6.984;2023-04-21T12:03:53;55989.75;;;-142.13;31.91
11712;BME280;5912;51.034;6.984;2023-04-21T12:06:23;55993.75;;;-142.13;30.87
11712;BME280;5912;51.034;6.984;2023-04-21T12:08:54;55991.75;;;-142.13;31.06
11712;BME280;5912;51.034;6.984;2023-04-21T12:11:19;55951.69;;;-142.13;30.48
11712;BME280;5912;51.034;6.984;2023-04-21T12:13:45;55935.69;;;-142.13;30.04
11712;BME280;5912;51.034;6.984;2023-04-21T12:16:11;55901.63;;;-142.13;29.75
11712;BME280;5912;51.034;6.984;2023-04-21T12:18:36;55915.66;;;-142.13;29.32
11712;BME280;5912;51.034;6.984;2023-04-21T12:21:02;55961.72;;;-142.13;30.00
11712;BME280;5912;51.034;6.984;2023-04-21T12:23:27;55981.75;;;-142.13;31.11
11712;BME280;5912;51.034;6.984;2023-04-21T12:25:53;55999.78;;;-142.13;31.52
11712;BME280;5912;51.034;6.984;2023-04-21T12:28:18;55979.75;;;-142.13;32.16
11712;BME280;5912;51.034;6.984;2023-04-21T12:30:43;55957.72;;;-142.13;30.92
11712;BME280;5912;51.034;6.984;2023-04-21T12:33:10;55983.75;;;-142.13;30.96
11712;BME280;5912;51.034;6.984;2023-04-21T12:35:35;55967.72;;;-142.13;31.44
11712;BME280;5912;51.034;6.984;2023-04-21T12:38:00;55995.78;;;-142.13;31.49
11712;BME280;5912;51.034;6.984;2023-04-21T12:40:26;55999.78;;;-142.13;31.86
11712;BME280;5912;51.034;6.984;2023-04-21T12:42:51;56011.78;;;-142.13;32.14
11712;BME280;5912;51.034;6.984;2023-04-21T12:45:16;55957.72;;;-142.13;31.83
11712;BME280;5912;51.034;6.984;2023-04-21T12:47:42;55995.78;;;-142.13;32.13
11712;BME280;5912;51.034;6.984;2023-04-21T12:50:08;56001.78;;;-142.13;32.29
11712;BME280;5912;51.034;6.984;2023-04-21T12:52:35;55957.72;;;-142.13;31.63
11712;BME280;5912;51.034;6.984;2023-04-21T12:55:00;55961.72;;;-142.13;30.87
11712;BME280;5912;51.034;6.984;2023-04-21T12:57:25;55975.75;;;-142.13;30.52
11712;BME280;5912;51.034;6.984;2023-04-21T12:59:51;55999.78;;;-142.13;30.94
11712;BME280;5912;51.034;6.984;2023-04-21T13:02:16;56019.81;;;-142.13;32.29